sensor_id;sensor_type;location;lat;lon;timestamp;temperature;humidity
484;DHT22;228;48.922;12.198;2023-02-26T00:00:08;1.70;70.30
484;DHT22;228;48.922;12.198;2023-02-26T00:02:43;1.70;70.00
484;DHT22;228;48.922;12.198;2023-02-26T00:05:11;1.50;70.10
484;DHT22;228;48.922;12.198;2023-02-26T00:07:38;1.60;70.60
484;DHT22;228;48.922;12.198;2023-02-26T00:10:06;1.40;70.10
484;DHT22;228;48.922;12.198;2023-02-26T00:12:38;1.40;71.30
484;DHT22;228;48.922;12.198;2023-02-26T00:15:06;1.30;71.30
484;DHT22;228;48.922;12.198;2023-02-26T00:20:28;1.40;70.80
484;DHT22;228;48.922;12.198;2023-02-26T00:22:55;1.60;70.60
484;DHT22;228;48.922;12.198;2023-02-26T00:25:21;1.40;70.60
484;DHT22;228;48.922;12.198;2023-02-26T00:27:48;1.50;69.90
484;DHT22;228;48.922;12.198;2023-02-26T00:30:14;1.50;69.90
484;DHT22;228;48.922;12.198;2023-02-26T00:32:41;1.60;70.10
484;DHT22;228;48.922;12.198;2023-02-26T00:35:11;1.70;69.10
484;DHT22;228;48.922;12.198;2023-02-26T00:37:57;1.50;69.00
484;DHT22;228;48.922;12.198;2023-02-26T00:45:59;1.30;70.40
484;DHT22;228;48.922;12.198;2023-02-26T00:51:58;1.50;67.70
484;DHT22;228;48.922;12.198;2023-02-26T00:54:29;1.50;69.00
484;DHT22;228;48.922;12.198;2023-02-26T00:56:56;1.60;68.10
484;DHT22;228;48.922;12.198;2023-02-26T00:59:24;1.50;67.70
484;DHT22;228;48.922;12.198;2023-02-26T01:01:51;1.30;68.10
484;DHT22;228;48.922;12.198;2023-02-26T01:04:20;1.20;68.80
484;DHT22;228;48.922;12.198;2023-02-26T01:06:51;1.00;69.40
484;DHT22;228;48.922;12.198;2023-02-26T01:11:55;1.00;69.20
484;DHT22;228;48.922;12.198;2023-02-26T01:14:27;1.00;69.40
484;DHT22;228;48.922;12.198;2023-02-26T01:19:54;1.10;69.90
484;DHT22;228;48.922;12.198;2023-02-26T01:22:59;1.00;70.40
484;DHT22;228;48.922;12.198;2023-02-26T01:28:02;0.70;72.20
484;DHT22;228;48.922;12.198;2023-02-26T01:30:28;0.60;73.00
484;DHT22;228;48.922;12.198;2023-02-26T01:44:26;0.60;73.40
484;DHT22;228;48.922;12.198;2023-02-26T01:47:16;0.50;74.30
484;DHT22;228;48.922;12.198;2023-02-26T01:49:46;0.40;74.80
484;DHT22;228;48.922;12.198;2023-02-26T01:54:57;0.10;73.90
484;DHT22;228;48.922;12.198;2023-02-26T01:57:24;0.00;74.90
484;DHT22;228;48.922;12.198;2023-02-26T01:59:51;0.00;74.50
484;DHT22;228;48.922;12.198;2023-02-26T02:02:20;0.00;74.50
484;DHT22;228;48.922;12.198;2023-02-26T02:04:49;-0.10;74.80
484;DHT22;228;48.922;12.198;2023-02-26T02:07:15;-0.20;75.00
484;DHT22;228;48.922;12.198;2023-02-26T02:09:42;-0.30;75.40
484;DHT22;228;48.922;12.198;2023-02-26T02:12:34;-0.20;75.20
484;DHT22;228;48.922;12.198;2023-02-26T02:15:09;-0.20;75.50
484;DHT22;228;48.922;12.198;2023-02-26T02:20:56;0.10;75.30
484;DHT22;228;48.922;12.198;2023-02-26T02:23:55;0.10;74.00
484;DHT22;228;48.922;12.198;2023-02-26T02:32:45;0.00;72.10
484;DHT22;228;48.922;12.198;2023-02-26T02:35:23;0.00;72.70
484;DHT22;228;48.922;12.198;2023-02-26T02:38:15;0.10;72.70
484;DHT22;228;48.922;12.198;2023-02-26T02:40:48;0.10;72.30
484;DHT22;228;48.922;12.198;2023-02-26T02:43:22;0.30;72.00
484;DHT22;228;48.922;12.198;2023-02-26T02:46:21;0.20;71.90
484;DHT22;228;48.922;12.198;2023-02-26T02:49:01;0.00;71.30
484;DHT22;228;48.922;12.198;2023-02-26T02:51:49;-0.10;72.40
484;DHT22;228;48.922;12.198;2023-02-26T02:57:21;0.10;69.80
484;DHT22;228;48.922;12.198;2023-02-26T02:59:58;0.00;69.70
484;DHT22;228;48.922;12.198;2023-02-26T03:04:58;0.10;69.70
484;DHT22;228;48.922;12.198;2023-02-26T03:07:24;0.20;69.40
484;DHT22;228;48.922;12.198;2023-02-26T03:09:51;0.20;68.50
484;DHT22;228;48.922;12.198;2023-02-26T03:12:17;0.20;68.50
484;DHT22;228;48.922;12.198;2023-02-26T03:14:44;-0.10;68.50
484;DHT22;228;48.922;12.198;2023-02-26T03:23:00;-0.30;69.80
484;DHT22;228;48.922;12.198;2023-02-26T03:28:27;-0.10;69.40
484;DHT22;228;48.922;12.198;2023-02-26T03:31:14;-0.10;68.30
484;DHT22;228;48.922;12.198;2023-02-26T03:37:29;-0.40;68.70
484;DHT22;228;48.922;12.198;2023-02-26T03:39:43;-0.20;68.40
484;DHT22;228;48.922;12.198;2023-02-26T03:42:20;-0.10;67.40
484;DHT22;228;48.922;12.198;2023-02-26T03:45:05;-0.10;67.40
484;DHT22;228;48.922;12.198;2023-02-26T03:47:39;-0.30;67.90
484;DHT22;228;48.922;12.198;2023-02-26T03:50:34;-0.50;68.10
484;DHT22;228;48.922;12.198;2023-02-26T03:53:35;-0.60;68.90
484;DHT22;228;48.922;12.198;2023-02-26T03:56:17;-0.60;69.00
484;DHT22;228;48.922;12.198;2023-02-26T03:58:56;-0.50;69.10
484;DHT22;228;48.922;12.198;2023-02-26T04:04:33;-0.40;68.70
484;DHT22;228;48.922;12.198;2023-02-26T04:07:08;-0.30;69.00
484;DHT22;228;48.922;12.198;2023-02-26T04:09:36;-0.40;68.70
484;DHT22;228;48.922;12.198;2023-02-26T04:12:02;-0.30;68.50
484;DHT22;228;48.922;12.198;2023-02-26T04:14:29;-0.20;67.20
484;DHT22;228;48.922;12.198;2023-02-26T04:16:55;-0.20;68.10
484;DHT22;228;48.922;12.198;2023-02-26T04:19:21;0.00;67.40
484;DHT22;228;48.922;12.198;2023-02-26T04:21:47;-0.10;67.20
484;DHT22;228;48.922;12.198;2023-02-26T04:24:15;-0.20;67.50
484;DHT22;228;48.922;12.198;2023-02-26T04:26:43;-0.20;67.50
484;DHT22;228;48.922;12.198;2023-02-26T04:29:09;-0.10;67.60
484;DHT22;228;48.922;12.198;2023-02-26T04:31:35;-0.10;67.30
484;DHT22;228;48.922;12.198;2023-02-26T04:34:02;-0.20;67.20
484;DHT22;228;48.922;12.198;2023-02-26T04:36:28;-0.20;68.40
484;DHT22;228;48.922;12.198;2023-02-26T04:38:57;-0.30;68.20
484;DHT22;228;48.922;12.198;2023-02-26T04:41:23;-0.30;68.70
484;DHT22;228;48.922;12.198;2023-02-26T04:43:49;-0.40;69.10
484;DHT22;228;48.922;12.198;2023-02-26T04:46:25;-0.30;69.70
484;DHT22;228;48.922;12.198;2023-02-26T04:48:51;-0.30;69.50
484;DHT22;228;48.922;12.198;2023-02-26T04:51:17;-0.40;69.80
484;DHT22;228;48.922;12.198;2023-02-26T04:53:43;-0.30;69.40
484;DHT22;228;48.922;12.198;2023-02-26T04:56:10;-0.20;69.30
484;DHT22;228;48.922;12.198;2023-02-26T04:58:36;-0.20;69.10
484;DHT22;228;48.922;12.198;2023-02-26T05:01:07;-0.10;69.10
484;DHT22;228;48.922;12.198;2023-02-26T05:03:33;0.00;69.10
484;DHT22;228;48.922;12.198;2023-02-26T05:05:59;0.10;68.60
484;DHT22;228;48.922;12.198;2023-02-26T05:08:25;0.00;68.50
484;DHT22;228;48.922;12.198;2023-02-26T05:10:51;-0.10;69.40
484;DHT22;228;48.922;12.198;2023-02-26T05:13:18;0.30;69.80
484;DHT22;228;48.922;12.198;2023-02-26T05:15:45;0.00;69.50
484;DHT22;228;48.922;12.198;2023-02-26T05:18:11;0.10;70.00
484;DHT22;228;48.922;12.198;2023-02-26T05:20:37;0.30;69.20
484;DHT22;228;48.922;12.198;2023-02-26T05:23:04;0.20;68.60
484;DHT22;228;48.922;12.198;2023-02-26T05:25:30;0.20;70.00
484;DHT22;228;48.922;12.198;2023-02-26T05:27:56;0.30;70.10
484;DHT22;228;48.922;12.198;2023-02-26T05:30:22;0.50;69.20
484;DHT22;228;48.922;12.198;2023-02-26T05:32:48;0.40;68.80
484;DHT22;228;48.922;12.198;2023-02-26T05:35:14;0.20;70.10
484;DHT22;228;48.922;12.198;2023-02-26T05:37:40;0.20;70.20
484;DHT22;228;48.922;12.198;2023-02-26T05:40:08;0.20;71.20
484;DHT22;228;48.922;12.198;2023-02-26T05:42:38;0.50;70.30
484;DHT22;228;48.922;12.198;2023-02-26T05:45:05;0.60;70.00
484;DHT22;228;48.922;12.198;2023-02-26T05:47:33;0.10;70.30
484;DHT22;228;48.922;12.198;2023-02-26T05:49:59;0.20;71.50
484;DHT22;228;48.922;12.198;2023-02-26T05:52:26;0.20;71.30
484;DHT22;228;48.922;12.198;2023-02-26T05:54:53;0.30;71.00
484;DHT22;228;48.922;12.198;2023-02-26T05:57:19;0.40;71.00
484;DHT22;228;48.922;12.198;2023-02-26T05:59:45;0.40;71.00
484;DHT22;228;48.922;12.198;2023-02-26T06:02:11;0.60;70.10
484;DHT22;228;48.922;12.198;2023-02-26T06:04:37;0.40;69.70
484;DHT22;228;48.922;12.198;2023-02-26T06:07:03;0.30;70.90
484;DHT22;228;48.922;12.198;2023-02-26T06:09:29;0.50;70.60
484;DHT22;228;48.922;12.198;2023-02-26T06:11:55;0.40;70.30
484;DHT22;228;48.922;12.198;2023-02-26T06:14:21;0.60;69.70
484;DHT22;228;48.922;12.198;2023-02-26T06:16:47;0.60;69.60
484;DHT22;228;48.922;12.198;2023-02-26T06:19:13;0.40;70.10
484;DHT22;228;48.922;12.198;2023-02-26T06:21:39;0.20;69.90
484;DHT22;228;48.922;12.198;2023-02-26T06:24:05;0.30;70.30
484;DHT22;228;48.922;12.198;2023-02-26T06:26:32;0.60;69.10
484;DHT22;228;48.922;12.198;2023-02-26T06:28:58;0.80;68.30
484;DHT22;228;48.922;12.198;2023-02-26T06:31:24;0.50;68.00
484;DHT22;228;48.922;12.198;2023-02-26T06:33:50;0.40;69.90
484;DHT22;228;48.922;12.198;2023-02-26T06:36:16;0.40;70.20
484;DHT22;228;48.922;12.198;2023-02-26T06:38:42;0.30;69.90
484;DHT22;228;48.922;12.198;2023-02-26T06:41:10;0.30;70.20
484;DHT22;228;48.922;12.198;2023-02-26T06:43:36;0.60;70.10
484;DHT22;228;48.922;12.198;2023-02-26T06:46:03;0.60;69.20
484;DHT22;228;48.922;12.198;2023-02-26T06:48:29;0.50;68.50
484;DHT22;228;48.922;12.198;2023-02-26T06:50:55;0.50;68.60
484;DHT22;228;48.922;12.198;2023-02-26T06:53:21;0.60;68.10
484;DHT22;228;48.922;12.198;2023-02-26T06:55:50;0.80;68.40
484;DHT22;228;48.922;12.198;2023-02-26T06:58:17;1.10;68.10
484;DHT22;228;48.922;12.198;2023-02-26T07:00:44;1.10;66.30
484;DHT22;228;48.922;12.198;2023-02-26T07:03:15;1.20;66.00
484;DHT22;228;48.922;12.198;2023-02-26T07:05:43;1.20;65.50
484;DHT22;228;48.922;12.198;2023-02-26T07:08:09;1.30;65.20
484;DHT22;228;48.922;12.198;2023-02-26T07:10:36;1.00;65.20
484;DHT22;228;48.922;12.198;2023-02-26T07:13:03;1.00;66.10
484;DHT22;228;48.922;12.198;2023-02-26T07:15:29;1.20;66.10
484;DHT22;228;48.922;12.198;2023-02-26T07:17:56;1.30;65.50
484;DHT22;228;48.922;12.198;2023-02-26T07:20:22;1.30;64.50
484;DHT22;228;48.922;12.198;2023-02-26T07:22:48;1.20;64.70
484;DHT22;228;48.922;12.198;2023-02-26T07:25:14;1.10;64.90
484;DHT22;228;48.922;12.198;2023-02-26T07:27:40;1.30;65.00
484;DHT22;228;48.922;12.198;2023-02-26T07:30:07;1.40;64.70
484;DHT22;228;48.922;12.198;2023-02-26T07:32:34;1.30;64.30
484;DHT22;228;48.922;12.198;2023-02-26T07:35:00;1.50;64.60
484;DHT22;228;48.922;12.198;2023-02-26T07:37:26;1.60;63.50
484;DHT22;228;48.922;12.198;2023-02-26T07:39:54;1.40;63.30
484;DHT22;228;48.922;12.198;2023-02-26T07:42:20;1.60;63.60
484;DHT22;228;48.922;12.198;2023-02-26T07:44:46;1.50;63.60
484;DHT22;228;48.922;12.198;2023-02-26T07:47:12;1.90;63.60
484;DHT22;228;48.922;12.198;2023-02-26T07:49:38;1.90;62.40
484;DHT22;228;48.922;12.198;2023-02-26T07:52:05;2.10;62.50
484;DHT22;228;48.922;12.198;2023-02-26T07:54:35;2.00;62.20
484;DHT22;228;48.922;12.198;2023-02-26T07:57:03;2.60;61.90
484;DHT22;228;48.922;12.198;2023-02-26T07:59:29;2.90;60.20
484;DHT22;228;48.922;12.198;2023-02-26T08:01:55;3.50;59.90
484;DHT22;228;48.922;12.198;2023-02-26T08:04:21;3.40;58.70
484;DHT22;228;48.922;12.198;2023-02-26T08:06:47;3.20;58.90
484;DHT22;228;48.922;12.198;2023-02-26T08:09:13;2.80;60.30
484;DHT22;228;48.922;12.198;2023-02-26T08:11:39;3.00;59.40
484;DHT22;228;48.922;12.198;2023-02-26T08:14:08;2.80;61.20
484;DHT22;228;48.922;12.198;2023-02-26T08:16:35;3.40;60.50
484;DHT22;228;48.922;12.198;2023-02-26T08:19:01;3.10;60.10
484;DHT22;228;48.922;12.198;2023-02-26T08:21:27;3.00;59.60
484;DHT22;228;48.922;12.198;2023-02-26T08:23:53;3.10;60.00
484;DHT22;228;48.922;12.198;2023-02-26T08:26:19;3.30;59.80
484;DHT22;228;48.922;12.198;2023-02-26T08:28:45;3.50;59.90
484;DHT22;228;48.922;12.198;2023-02-26T08:31:13;3.60;58.90
484;DHT22;228;48.922;12.198;2023-02-26T08:33:40;3.90;58.10
484;DHT22;228;48.922;12.198;2023-02-26T08:36:06;4.30;58.20
484;DHT22;228;48.922;12.198;2023-02-26T08:38:33;4.20;56.90
484;DHT22;228;48.922;12.198;2023-02-26T08:40:59;3.80;57.70
484;DHT22;228;48.922;12.198;2023-02-26T08:43:25;3.60;58.70
484;DHT22;228;48.922;12.198;2023-02-26T08:45:53;3.60;59.00
484;DHT22;228;48.922;12.198;2023-02-26T08:48:19;3.30;59.00
484;DHT22;228;48.922;12.198;2023-02-26T08:50:45;3.00;60.30
484;DHT22;228;48.922;12.198;2023-02-26T08:53:11;3.00;60.90
484;DHT22;228;48.922;12.198;2023-02-26T08:55:37;3.10;60.00
484;DHT22;228;48.922;12.198;2023-02-26T08:58:04;2.90;60.90
484;DHT22;228;48.922;12.198;2023-02-26T09:00:30;3.40;60.60
484;DHT22;228;48.922;12.198;2023-02-26T09:02:56;3.60;59.80
484;DHT22;228;48.922;12.198;2023-02-26T09:05:22;3.90;58.60
484;DHT22;228;48.922;12.198;2023-02-26T09:07:48;4.00;59.00
484;DHT22;228;48.922;12.198;2023-02-26T09:10:15;4.10;57.80
484;DHT22;228;48.922;12.198;2023-02-26T09:12:42;4.40;58.00
484;DHT22;228;48.922;12.198;2023-02-26T09:15:09;3.80;58.20
484;DHT22;228;48.922;12.198;2023-02-26T09:17:36;3.60;60.50
484;DHT22;228;48.922;12.198;2023-02-26T09:20:03;3.90;59.10
484;DHT22;228;48.922;12.198;2023-02-26T09:22:30;3.90;57.90
484;DHT22;228;48.922;12.198;2023-02-26T09:24:56;3.90;59.00
484;DHT22;228;48.922;12.198;2023-02-26T09:27:22;4.30;58.00
484;DHT22;228;48.922;12.198;2023-02-26T09:29:48;4.60;57.80
484;DHT22;228;48.922;12.198;2023-02-26T09:32:14;4.90;56.20
484;DHT22;228;48.922;12.198;2023-02-26T09:34:40;4.50;55.90
484;DHT22;228;48.922;12.198;2023-02-26T09:37:07;4.40;57.40
484;DHT22;228;48.922;12.198;2023-02-26T09:39:34;4.70;57.50
484;DHT22;228;48.922;12.198;2023-02-26T09:45:41;5.40;55.80
484;DHT22;228;48.922;12.198;2023-02-26T09:48:11;5.50;53.60
484;DHT22;228;48.922;12.198;2023-02-26T09:50:43;5.30;54.70
484;DHT22;228;48.922;12.198;2023-02-26T09:53:30;5.80;54.90
484;DHT22;228;48.922;12.198;2023-02-26T09:56:09;6.30;53.40
484;DHT22;228;48.922;12.198;2023-02-26T09:58:41;6.00;52.10
484;DHT22;228;48.922;12.198;2023-02-26T10:01:28;5.50;53.60
484;DHT22;228;48.922;12.198;2023-02-26T10:10:19;4.40;55.70
484;DHT22;228;48.922;12.198;2023-02-26T10:12:50;4.30;56.60
484;DHT22;228;48.922;12.198;2023-02-26T10:15:28;5.00;56.50
484;DHT22;228;48.922;12.198;2023-02-26T10:23:40;4.10;57.30
484;DHT22;228;48.922;12.198;2023-02-26T10:26:12;3.40;57.50
484;DHT22;228;48.922;12.198;2023-02-26T10:35:02;4.40;56.10
484;DHT22;228;48.922;12.198;2023-02-26T10:37:58;4.10;57.30
484;DHT22;228;48.922;12.198;2023-02-26T10:40:38;3.00;56.60
484;DHT22;228;48.922;12.198;2023-02-26T10:43:20;2.60;57.50
484;DHT22;228;48.922;12.198;2023-02-26T10:51:47;2.80;58.50
484;DHT22;228;48.922;12.198;2023-02-26T10:54:34;2.70;58.80
484;DHT22;228;48.922;12.198;2023-02-26T10:57:01;3.60;58.20
484;DHT22;228;48.922;12.198;2023-02-26T10:59:30;4.30;55.50
484;DHT22;228;48.922;12.198;2023-02-26T11:01:56;5.00;53.20
484;DHT22;228;48.922;12.198;2023-02-26T11:04:25;4.60;48.70
484;DHT22;228;48.922;12.198;2023-02-26T11:07:02;3.90;50.40
484;DHT22;228;48.922;12.198;2023-02-26T11:09:36;4.10;51.60
484;DHT22;228;48.922;12.198;2023-02-26T11:14:36;4.70;51.90
484;DHT22;228;48.922;12.198;2023-02-26T11:17:24;4.80;49.90
484;DHT22;228;48.922;12.198;2023-02-26T11:20:13;4.40;51.50
484;DHT22;228;48.922;12.198;2023-02-26T11:22:48;4.90;50.80
484;DHT22;228;48.922;12.198;2023-02-26T11:25:22;5.30;51.00
484;DHT22;228;48.922;12.198;2023-02-26T11:27:56;5.50;50.70
484;DHT22;228;48.922;12.198;2023-02-26T11:30:28;5.60;50.40
484;DHT22;228;48.922;12.198;2023-02-26T11:32:57;5.90;50.60
484;DHT22;228;48.922;12.198;2023-02-26T11:35:28;6.20;49.80
484;DHT22;228;48.922;12.198;2023-02-26T11:37:58;6.20;48.60
484;DHT22;228;48.922;12.198;2023-02-26T11:40:38;6.20;47.90
484;DHT22;228;48.922;12.198;2023-02-26T11:43:07;6.40;47.20
484;DHT22;228;48.922;12.198;2023-02-26T11:45:41;6.20;46.20
484;DHT22;228;48.922;12.198;2023-02-26T11:48:13;5.40;48.20
484;DHT22;228;48.922;12.198;2023-02-26T11:50:47;4.90;49.80
484;DHT22;228;48.922;12.198;2023-02-26T11:54:10;4.70;51.40
484;DHT22;228;48.922;12.198;2023-02-26T11:56:18;4.60;51.80
484;DHT22;228;48.922;12.198;2023-02-26T11:58:51;5.10;51.30
484;DHT22;228;48.922;12.198;2023-02-26T12:01:18;6.70;49.00
484;DHT22;228;48.922;12.198;2023-02-26T12:03:47;8.80;42.40
484;DHT22;228;48.922;12.198;2023-02-26T12:06:22;9.00;40.70
484;DHT22;228;48.922;12.198;2023-02-26T12:08:51;9.80;39.30
484;DHT22;228;48.922;12.198;2023-02-26T12:11:34;10.40;37.60
484;DHT22;228;48.922;12.198;2023-02-26T12:28:51;6.00;46.80
484;DHT22;228;48.922;12.198;2023-02-26T12:35:05;5.50;50.80
484;DHT22;228;48.922;12.198;2023-02-26T12:38:07;5.80;48.60
484;DHT22;228;48.922;12.198;2023-02-26T12:40:57;5.00;50.00
484;DHT22;228;48.922;12.198;2023-02-26T12:43:47;7.50;46.70
484;DHT22;228;48.922;12.198;2023-02-26T12:52:29;13.60;32.10
484;DHT22;228;48.922;12.198;2023-02-26T13:01:20;7.90;41.10
484;DHT22;228;48.922;12.198;2023-02-26T13:07:35;3.60;52.20
484;DHT22;228;48.922;12.198;2023-02-26T13:21:12;7.50;47.40
484;DHT22;228;48.922;12.198;2023-02-26T13:26:23;8.40;43.90
484;DHT22;228;48.922;12.198;2023-02-26T13:29:09;9.50;41.60
484;DHT22;228;48.922;12.198;2023-02-26T13:32:00;9.50;39.20
484;DHT22;228;48.922;12.198;2023-02-26T13:34:53;9.50;39.40
484;DHT22;228;48.922;12.198;2023-02-26T13:43:26;13.20;34.00
484;DHT22;228;48.922;12.198;2023-02-26T13:48:44;14.80;28.30
484;DHT22;228;48.922;12.198;2023-02-26T13:54:06;14.70;27.30
484;DHT22;228;48.922;12.198;2023-02-26T13:56:43;13.40;30.80
484;DHT22;228;48.922;12.198;2023-02-26T13:59:45;9.90;34.70
484;DHT22;228;48.922;12.198;2023-02-26T14:04:52;5.90;43.90
484;DHT22;228;48.922;12.198;2023-02-26T14:07:47;7.40;43.10
484;DHT22;228;48.922;12.198;2023-02-26T14:13:19;10.00;35.40
484;DHT22;228;48.922;12.198;2023-02-26T14:16:26;6.20;46.40
484;DHT22;228;48.922;12.198;2023-02-26T14:19:03;3.90;57.00
484;DHT22;228;48.922;12.198;2023-02-26T14:21:51;2.30;64.30
484;DHT22;228;48.922;12.198;2023-02-26T14:24:22;2.60;65.20
484;DHT22;228;48.922;12.198;2023-02-26T14:35:31;2.80;61.10
484;DHT22;228;48.922;12.198;2023-02-26T14:40:42;3.30;61.90
484;DHT22;228;48.922;12.198;2023-02-26T14:43:19;4.50;57.50
484;DHT22;228;48.922;12.198;2023-02-26T14:45:48;5.30;53.50
484;DHT22;228;48.922;12.198;2023-02-26T14:48:17;5.40;53.40
484;DHT22;228;48.922;12.198;2023-02-26T15:02:20;6.90;46.40
484;DHT22;228;48.922;12.198;2023-02-26T15:11:16;12.60;34.70
484;DHT22;228;48.922;12.198;2023-02-26T15:22:47;11.10;38.50
484;DHT22;228;48.922;12.198;2023-02-26T15:25:24;11.50;36.60
484;DHT22;228;48.922;12.198;2023-02-26T15:27:57;9.40;40.60
484;DHT22;228;48.922;12.198;2023-02-26T15:30:23;7.80;46.30
484;DHT22;228;48.922;12.198;2023-02-26T15:32:56;7.00;47.50
484;DHT22;228;48.922;12.198;2023-02-26T15:35:25;5.90;51.20
484;DHT22;228;48.922;12.198;2023-02-26T15:37:55;5.30;54.00
484;DHT22;228;48.922;12.198;2023-02-26T15:40:24;4.30;59.10
484;DHT22;228;48.922;12.198;2023-02-26T15:42:55;2.80;68.40
484;DHT22;228;48.922;12.198;2023-02-26T15:47:56;2.20;75.10
484;DHT22;228;48.922;12.198;2023-02-26T15:50:29;2.30;73.30
484;DHT22;228;48.922;12.198;2023-02-26T15:53:02;2.40;70.00
484;DHT22;228;48.922;12.198;2023-02-26T15:55:46;2.00;67.40
484;DHT22;228;48.922;12.198;2023-02-26T15:58:40;1.90;67.80
484;DHT22;228;48.922;12.198;2023-02-26T16:01:18;1.70;68.30
484;DHT22;228;48.922;12.198;2023-02-26T16:03:46;2.10;68.30
484;DHT22;228;48.922;12.198;2023-02-26T16:06:22;2.50;66.80
484;DHT22;228;48.922;12.198;2023-02-26T16:08:50;2.20;65.90
484;DHT22;228;48.922;12.198;2023-02-26T16:11:16;2.10;65.90
484;DHT22;228;48.922;12.198;2023-02-26T16:13:43;2.40;66.20
484;DHT22;228;48.922;12.198;2023-02-26T16:16:28;2.80;65.50
484;DHT22;228;48.922;12.198;2023-02-26T16:19:03;2.70;63.50
484;DHT22;228;48.922;12.198;2023-02-26T16:21:35;2.50;63.30
484;DHT22;228;48.922;12.198;2023-02-26T16:24:07;2.30;67.30
484;DHT22;228;48.922;12.198;2023-02-26T16:26:43;2.00;71.80
484;DHT22;228;48.922;12.198;2023-02-26T16:29:18;1.70;72.50
484;DHT22;228;48.922;12.198;2023-02-26T16:31:53;1.70;73.60
484;DHT22;228;48.922;12.198;2023-02-26T16:34:38;2.00;73.90
484;DHT22;228;48.922;12.198;2023-02-26T16:42:59;2.00;72.10
484;DHT22;228;48.922;12.198;2023-02-26T16:48:23;1.90;71.90
484;DHT22;228;48.922;12.198;2023-02-26T16:53:43;2.80;69.80
484;DHT22;228;48.922;12.198;2023-02-26T16:56:17;2.80;67.60
484;DHT22;228;48.922;12.198;2023-02-26T16:58:46;2.70;67.30
484;DHT22;228;48.922;12.198;2023-02-26T17:01:17;2.60;66.80
484;DHT22;228;48.922;12.198;2023-02-26T17:03:47;2.40;66.20
484;DHT22;228;48.922;12.198;2023-02-26T17:06:16;2.20;67.40
484;DHT22;228;48.922;12.198;2023-02-26T17:08:55;2.20;67.40
484;DHT22;228;48.922;12.198;2023-02-26T17:11:36;2.30;68.00
484;DHT22;228;48.922;12.198;2023-02-26T17:14:23;2.60;66.00
484;DHT22;228;48.922;12.198;2023-02-26T17:16:51;2.40;64.90
484;DHT22;228;48.922;12.198;2023-02-26T17:19:18;2.20;65.50
484;DHT22;228;48.922;12.198;2023-02-26T17:21:53;1.90;65.90
484;DHT22;228;48.922;12.198;2023-02-26T17:24:33;2.40;66.40
484;DHT22;228;48.922;12.198;2023-02-26T17:27:02;2.80;64.60
484;DHT22;228;48.922;12.198;2023-02-26T17:29:37;2.90;63.30
484;DHT22;228;48.922;12.198;2023-02-26T17:32:22;2.40;63.50
484;DHT22;228;48.922;12.198;2023-02-26T17:34:51;2.30;64.10
484;DHT22;228;48.922;12.198;2023-02-26T17:37:18;2.10;64.20
484;DHT22;228;48.922;12.198;2023-02-26T17:39:45;2.40;64.30
484;DHT22;228;48.922;12.198;2023-02-26T17:42:13;2.20;63.10
484;DHT22;228;48.922;12.198;2023-02-26T17:44:41;2.20;64.50
484;DHT22;228;48.922;12.198;2023-02-26T17:47:24;1.80;63.60
484;DHT22;228;48.922;12.198;2023-02-26T17:49:51;1.90;63.60
484;DHT22;228;48.922;12.198;2023-02-26T17:52:18;1.70;62.80
484;DHT22;228;48.922;12.198;2023-02-26T17:54:44;1.60;62.70
484;DHT22;228;48.922;12.198;2023-02-26T17:57:17;1.60;62.80
484;DHT22;228;48.922;12.198;2023-02-26T17:59:44;1.80;63.20
484;DHT22;228;48.922;12.198;2023-02-26T18:02:22;1.90;62.40
484;DHT22;228;48.922;12.198;2023-02-26T18:04:52;1.90;61.90
484;DHT22;228;48.922;12.198;2023-02-26T18:07:19;2.20;61.70
484;DHT22;228;48.922;12.198;2023-02-26T18:09:47;2.50;61.10
484;DHT22;228;48.922;12.198;2023-02-26T18:12:14;2.30;60.20
484;DHT22;228;48.922;12.198;2023-02-26T18:14:42;2.10;59.40
484;DHT22;228;48.922;12.198;2023-02-26T18:17:13;1.80;60.60
484;DHT22;228;48.922;12.198;2023-02-26T18:19:41;1.90;61.70
484;DHT22;228;48.922;12.198;2023-02-26T18:22:12;2.10;60.70
484;DHT22;228;48.922;12.198;2023-02-26T18:24:39;2.00;61.00
484;DHT22;228;48.922;12.198;2023-02-26T18:27:08;2.10;60.80
484;DHT22;228;48.922;12.198;2023-02-26T18:29:38;2.60;60.00
484;DHT22;228;48.922;12.198;2023-02-26T18:32:04;3.00;58.90
484;DHT22;228;48.922;12.198;2023-02-26T18:34:30;2.80;58.90
484;DHT22;228;48.922;12.198;2023-02-26T18:36:56;2.40;58.80
484;DHT22;228;48.922;12.198;2023-02-26T18:39:22;2.40;60.10
484;DHT22;228;48.922;12.198;2023-02-26T18:41:52;2.70;59.70
484;DHT22;228;48.922;12.198;2023-02-26T18:44:18;2.20;59.20
484;DHT22;228;48.922;12.198;2023-02-26T18:46:44;1.90;60.60
484;DHT22;228;48.922;12.198;2023-02-26T18:49:17;2.00;61.70
484;DHT22;228;48.922;12.198;2023-02-26T18:51:44;1.90;61.40
484;DHT22;228;48.922;12.198;2023-02-26T18:54:10;2.20;60.90
484;DHT22;228;48.922;12.198;2023-02-26T18:56:36;2.00;61.30
484;DHT22;228;48.922;12.198;2023-02-26T18:59:03;2.10;60.90
484;DHT22;228;48.922;12.198;2023-02-26T19:01:30;1.70;61.10
484;DHT22;228;48.922;12.198;2023-02-26T19:03:56;1.60;62.10
484;DHT22;228;48.922;12.198;2023-02-26T19:06:22;1.50;63.10
484;DHT22;228;48.922;12.198;2023-02-26T19:08:48;1.60;62.00
484;DHT22;228;48.922;12.198;2023-02-26T19:11:14;2.00;61.70
484;DHT22;228;48.922;12.198;2023-02-26T19:13:41;2.20;59.90
484;DHT22;228;48.922;12.198;2023-02-26T19:16:07;2.20;60.00
484;DHT22;228;48.922;12.198;2023-02-26T19:18:33;1.70;60.30
484;DHT22;228;48.922;12.198;2023-02-26T19:20:59;1.80;61.30
484;DHT22;228;48.922;12.198;2023-02-26T19:23:27;1.70;62.70
484;DHT22;228;48.922;12.198;2023-02-26T19:25:53;1.90;61.80
484;DHT22;228;48.922;12.198;2023-02-26T19:28:19;2.00;61.00
484;DHT22;228;48.922;12.198;2023-02-26T19:30:45;2.00;61.00
484;DHT22;228;48.922;12.198;2023-02-26T19:33:11;1.90;60.00
484;DHT22;228;48.922;12.198;2023-02-26T19:35:38;1.80;60.60
484;DHT22;228;48.922;12.198;2023-02-26T19:38:05;1.80;61.60
484;DHT22;228;48.922;12.198;2023-02-26T19:40:31;1.30;61.20
484;DHT22;228;48.922;12.198;2023-02-26T19:42:57;1.20;62.10
484;DHT22;228;48.922;12.198;2023-02-26T19:45:23;1.10;62.50
484;DHT22;228;48.922;12.198;2023-02-26T19:47:49;1.20;61.50
484;DHT22;228;48.922;12.198;2023-02-26T19:50:15;1.40;61.40
484;DHT22;228;48.922;12.198;2023-02-26T19:52:44;1.50;61.00
484;DHT22;228;48.922;12.198;2023-02-26T19:55:10;1.30;61.80
484;DHT22;228;48.922;12.198;2023-02-26T19:57:39;1.50;62.20
484;DHT22;228;48.922;12.198;2023-02-26T20:00:05;1.50;61.40
484;DHT22;228;48.922;12.198;2023-02-26T20:02:38;1.70;62.00
484;DHT22;228;48.922;12.198;2023-02-26T20:05:05;2.10;60.80
484;DHT22;228;48.922;12.198;2023-02-26T20:07:32;2.20;59.90
484;DHT22;228;48.922;12.198;2023-02-26T20:09:59;2.10;60.20
484;DHT22;228;48.922;12.198;2023-02-26T20:12:27;2.30;59.30
484;DHT22;228;48.922;12.198;2023-02-26T20:14:55;2.10;59.80
484;DHT22;228;48.922;12.198;2023-02-26T20:17:22;2.30;60.00
484;DHT22;228;48.922;12.198;2023-02-26T20:19:48;1.90;60.20
484;DHT22;228;48.922;12.198;2023-02-26T20:22:14;1.60;62.00
484;DHT22;228;48.922;12.198;2023-02-26T20:24:41;1.60;62.60
484;DHT22;228;48.922;12.198;2023-02-26T20:27:07;1.70;62.10